Time;durP1;ratioP1;P1;durP2;ratioP2;P2;SDS_P1;SDS_P2;PMS_P1;PMS_P2;Temp;Humidity;BMP_temperature;BMP_pressure;BME280_temperature;BME280_humidity;BME280_pressure;Samples;Min_cycle;Max_cycle;Signal;HPM_P1;HPM_P2
2021/12/11 00:01:39;;;;;;;2.58;2.30;;;2.80;99.90;;;;;;5032275;28;20036;-71
2021/12/11 00:04:08;;;;;;;3.15;2.67;;;2.70;99.90;;;;;;5033508;28;20032;-72
2021/12/11 00:06:39;;;;;;;5.25;2.70;;;2.80;99.90;;;;;;5025706;28;20152;-70
2021/12/11 00:09:16;;;;;;;4.95;2.60;;;2.80;99.90;;;;;;5019553;28;20040;-71
2021/12/11 00:11:45;;;;;;;3.75;2.38;;;2.80;99.90;;;;;;5032213;28;20535;-70
2021/12/11 00:14:13;;;;;;;4.00;3.00;;;2.70;99.90;;;;;;5028269;28;20040;-71
2021/12/11 00:16:40;;;;;;;3.05;2.67;;;2.80;99.90;;;;;;5033215;28;20535;-71
2021/12/11 00:19:13;;;;;;;6.50;3.15;;;2.80;99.90;;;;;;5062587;22;20029;-69
2021/12/11 00:21:40;;;;;;;5.80;3.20;;;2.80;99.90;;;;;;5033023;28;20016;-69
2021/12/11 00:24:11;;;;;;;3.53;2.92;;;2.80;99.90;;;;;;5049271;28;20025;-68
2021/12/11 00:26:38;;;;;;;6.10;3.65;;;2.80;99.90;;;;;;5049483;28;20033;-69
2021/12/11 00:29:06;;;;;;;5.95;3.90;;;2.80;99.90;;;;;;5032194;28;20052;-68
2021/12/11 00:31:34;;;;;;;6.55;5.03;;;2.90;99.90;;;;;;5031903;28;20115;-68
2021/12/11 00:34:03;;;;;;;6.80;4.38;;;2.90;99.90;;;;;;5049044;28;20041;-69
2021/12/11 00:36:34;;;;;;;7.70;4.50;;;2.90;99.90;;;;;;5048926;28;20559;-69
2021/12/11 00:39:13;;;;;;;4.20;3.80;;;2.90;99.90;;;;;;5032364;28;20025;-68
2021/12/11 00:41:40;;;;;;;4.40;3.95;;;2.90;99.90;;;;;;5049378;28;20044;-68
2021/12/11 00:44:06;;;;;;;5.45;4.32;;;2.90;99.90;;;;;;5032589;28;20021;-69
2021/12/11 00:46:33;;;;;;;4.20;3.72;;;2.90;99.90;;;;;;5048460;28;20040;-68
2021/12/11 00:49:18;;;;;;;6.38;3.63;;;2.90;99.90;;;;;;5031689;28;20121;-68
2021/12/11 00:51:56;;;;;;;5.63;3.67;;;2.90;99.90;;;;;;5047614;28;20533;-68
2021/12/11 00:54:22;;;;;;;6.80;4.57;;;2.90;99.90;;;;;;5029794;28;20049;-69
2021/12/11 00:56:51;;;;;;;4.28;3.38;;;2.90;99.90;;;;;;5046243;28;20024;-68
2021/12/11 00:59:20;;;;;;;4.50;3.47;;;2.90;99.90;;;;;;5032308;28;20050;-68
2021/12/11 01:01:53;;;;;;;3.53;2.75;;;2.90;99.90;;;;;;5031281;28;20055;-68
2021/12/11 01:04:29;;;;;;;3.75;2.60;;;2.90;99.90;;;;;;5049125;28;20025;-68
2021/12/11 01:06:57;;;;;;;5.32;3.03;;;2.90;99.90;;;;;;5033386;28;20076;-68
2021/12/11 01:09:24;;;;;;;7.80;2.83;;;2.90;99.90;;;;;;5044817;28;20463;-68
2021/12/11 01:12:13;;;;;;;2.90;2.63;;;2.90;99.90;;;;;;5048745;28;20032;-68
2021/12/11 01:14:52;;;;;;;2.88;2.17;;;2.90;99.90;;;;;;5048591;28;20430;-68
2021/12/11 01:17:31;;;;;;;4.60;2.97;;;2.90;99.90;;;;;;5031120;28;20029;-68
2021/12/11 01:20:00;;;;;;;3.05;2.28;;;2.90;99.90;;;;;;5048544;28;20032;-68
2021/12/11 01:22:35;;;;;;;3.55;2.60;;;2.80;99.90;;;;;;5048186;28;20031;-68
2021/12/11 01:25:30;;;;;;;2.92;2.20;;;2.90;99.90;;;;;;5032462;28;20059;-69
2021/12/11 01:27:59;;;;;;;2.55;2.30;;;2.80;99.90;;;;;;5013813;28;20681;-68
2021/12/11 01:30:34;;;;;;;1.90;1.80;;;2.80;99.90;;;;;;5048245;28;20055;-68
2021/12/11 01:33:01;;;;;;;1.92;1.75;;;2.80;99.90;;;;;;5047410;28;20396;-68
2021/12/11 01:35:28;;;;;;;1.70;1.60;;;2.80;99.90;;;;;;5049470;28;20049;-68
2021/12/11 01:38:08;;;;;;;1.80;1.70;;;2.80;99.90;;;;;;5049362;28;20369;-68
2021/12/11 01:40:35;;;;;;;1.60;1.50;;;2.80;99.90;;;;;;5034622;28;20025;-68
2021/12/11 01:43:03;;;;;;;2.50;1.60;;;2.70;99.90;;;;;;5048709;28;20111;-69
2021/12/11 01:45:31;;;;;;;1.77;1.67;;;2.70;99.90;;;;;;5048042;28;20048;-68
2021/12/11 01:47:57;;;;;;;2.53;1.70;;;2.70;99.90;;;;;;5047565;28;20108;-69
2021/12/11 01:50:45;;;;;;;1.80;1.70;;;2.70;99.90;;;;;;5048203;28;20033;-68
2021/12/11 01:53:18;;;;;;;2.10;2.00;;;2.70;99.90;;;;;;5031435;28;20024;-68
2021/12/11 01:55:53;;;;;;;2.17;1.98;;;2.70;99.90;;;;;;5048621;28;20032;-68
2021/12/11 01:58:27;;;;;;;2.60;2.40;;;2.70;99.90;;;;;;5047183;28;20051;-68
2021/12/11 02:00:58;;;;;;;3.10;2.35;;;2.70;99.90;;;;;;5048344;28;20036;-68
2021/12/11 02:03:29;;;;;;;2.70;2.50;;;2.70;99.90;;;;;;5047455;28;20048;-69
2021/12/11 02:05:56;;;;;;;2.30;2.10;;;2.70;99.90;;;;;;5050907;28;20025;-68
2021/12/11 02:08:28;;;;;;;2.70;2.50;;;2.70;99.90;;;;;;5050443;28;20025;-68
2021/12/11 02:11:17;;;;;;;3.03;2.72;;;2.70;99.90;;;;;;5051644;28;20024;-68
2021/12/11 02:13:49;;;;;;;4.32;3.03;;;2.70;99.90;;;;;;5052756;28;20028;-68
2021/12/11 02:16:24;;;;;;;2.13;1.95;;;2.60;99.90;;;;;;5038846;28;20120;-68
2021/12/11 02:18:58;;;;;;;2.60;2.40;;;2.60;99.90;;;;;;5047342;28;20461;-68
2021/12/11 02:21:31;;;;;;;2.55;2.35;;;2.60;99.90;;;;;;5034640;28;20021;-68
2021/12/11 02:24:06;;;;;;;3.03;2.72;;;2.60;99.90;;;;;;5035004;28;20033;-68
2021/12/11 02:26:35;;;;;;;3.28;2.90;;;2.60;99.90;;;;;;5035224;28;20066;-68
2021/12/11 02:29:24;;;;;;;3.28;2.97;;;2.50;99.90;;;;;;5034081;28;20108;-68
2021/12/11 02:31:58;;;;;;;3.92;2.95;;;2.60;99.90;;;;;;5022266;28;20407;-68
2021/12/11 02:34:34;;;;;;;3.35;3.05;;;2.50;99.90;;;;;;5035271;28;20500;-68
2021/12/11 02:37:05;;;;;;;4.05;3.10;;;2.50;99.90;;;;;;5031419;28;20032;-68
2021/12/11 02:39:44;;;;;;;4.67;3.73;;;2.50;99.90;;;;;;5060427;28;20025;-68
2021/12/11 02:42:34;;;;;;;4.32;3.60;;;2.50;99.90;;;;;;5018164;28;20294;-68
2021/12/11 02:45:04;;;;;;;4.88;4.15;;;2.50;99.90;;;;;;5020700;28;20032;-68
2021/12/11 02:47:35;;;;;;;4.78;3.90;;;2.50;99.90;;;;;;5050452;28;20028;-68
2021/12/11 02:50:13;;;;;;;6.70;4.72;;;2.50;99.90;;;;;;5052472;28;20118;-68
2021/12/11 02:52:38;;;;;;;5.00;4.13;;;2.50;99.90;;;;;;5050933;28;20024;-68
2021/12/11 02:55:16;;;;;;;5.07;4.15;;;2.50;99.90;;;;;;5034783;28;20025;-68
2021/12/11 02:57:48;;;;;;;5.80;4.93;;;2.40;99.90;;;;;;5050013;28;20389;-68
2021/12/11 03:00:26;;;;;;;5.80;4.70;;;2.40;99.90;;;;;;5034203;28;20029;-68
2021/12/11 03:03:02;;;;;;;8.20;5.07;;;2.40;99.90;;;;;;5050951;28;20647;-68
2021/12/11 03:05:40;;;;;;;7.10;4.95;;;2.40;99.90;;;;;;5050002;28;20053;-68
2021/12/11 03:08:08;;;;;;;5.95;4.93;;;2.40;99.90;;;;;;5050106;28;20511;-68
2021/12/11 03:10:35;;;;;;;6.53;5.20;;;2.30;99.90;;;;;;5050676;28;20037;-68
2021/12/11 03:13:01;;;;;;;6.53;5.25;;;2.30;99.90;;;;;;5033184;28;20029;-68
2021/12/11 03:15:27;;;;;;;7.63;5.18;;;2.30;99.90;;;;;;5033559;28;20029;-68
2021/12/11 03:17:53;;;;;;;5.68;4.90;;;2.30;99.90;;;;;;5032836;28;20055;-68
2021/12/11 03:20:23;;;;;;;6.38;5.05;;;2.30;99.90;;;;;;5050264;28;20033;-68
2021/12/11 03:22:50;;;;;;;5.90;4.88;;;2.30;99.90;;;;;;5048793;28;20035;-68
2021/12/11 03:25:22;;;;;;;5.63;4.80;;;2.30;99.90;;;;;;5052318;28;20025;-68
2021/12/11 03:27:48;;;;;;;6.78;4.95;;;2.30;99.90;;;;;;5049983;28;20033;-68
2021/12/11 03:30:23;;;;;;;6.63;5.55;;;2.20;99.90;;;;;;5051841;28;20139;-68
2021/12/11 03:32:55;;;;;;;6.07;5.28;;;2.20;99.90;;;;;;5050974;28;20067;-68
2021/12/11 03:35:22;;;;;;;6.95;5.20;;;2.30;99.90;;;;;;5049525;28;20370;-68
2021/12/11 03:37:48;;;;;;;6.50;5.60;;;2.20;99.90;;;;;;5032467;28;20060;-68
2021/12/11 03:40:15;;;;;;;7.82;5.85;;;2.20;99.90;;;;;;5033817;28;20481;-68
2021/12/11 03:42:45;;;;;;;7.85;6.10;;;2.20;99.90;;;;;;5050276;28;20029;-68
2021/12/11 03:45:18;;;;;;;9.70;6.80;;;2.30;99.90;;;;;;5031830;28;20369;-68
2021/12/11 03:47:49;;;;;;;10.05;6.40;;;2.20;99.90;;;;;;5049748;28;20025;-68
2021/12/11 03:50:17;;;;;;;8.68;6.65;;;2.20;99.90;;;;;;5050081;28;20111;-68
2021/12/11 03:52:46;;;;;;;9.13;6.47;;;2.20;99.90;;;;;;5049384;28;20049;-68
2021/12/11 03:55:16;;;;;;;10.18;6.60;;;2.20;99.90;;;;;;5033236;28;20039;-68
2021/12/11 03:57:44;;;;;;;9.63;7.30;;;2.20;99.90;;;;;;5049142;28;20143;-68
2021/12/11 04:00:15;;;;;;;9.50;7.28;;;2.20;99.90;;;;;;5033515;28;20029;-68
2021/12/11 04:02:43;;;;;;;9.75;7.18;;;2.20;99.90;;;;;;5050157;28;20036;-68
2021/12/11 04:05:10;;;;;;;10.02;7.47;;;2.20;99.90;;;;;;5049309;28;20025;-68
2021/12/11 04:07:42;;;;;;;8.40;6.65;;;2.20;99.90;;;;;;5049111;28;20037;-68
2021/12/11 04:10:10;;;;;;;11.32;8.10;;;2.20;99.90;;;;;;5049198;28;20028;-68
2021/12/11 04:12:36;;;;;;;10.52;7.32;;;2.20;99.90;;;;;;5050010;28;20037;-68
2021/12/11 04:15:02;;;;;;;10.07;6.93;;;2.20;99.90;;;;;;5033843;28;20035;-68
2021/12/11 04:17:28;;;;;;;10.32;7.13;;;2.20;99.90;;;;;;5032120;28;20439;-68
2021/12/11 04:19:57;;;;;;;10.82;7.65;;;2.10;99.90;;;;;;5049239;28;20033;-68
2021/12/11 04:22:24;;;;;;;11.25;7.57;;;2.10;99.90;;;;;;5045280;28;20420;-68
2021/12/11 04:24:50;;;;;;;10.27;7.32;;;2.20;99.90;;;;;;5038766;28;20526;-68
2021/12/11 04:27:19;;;;;;;10.20;7.30;;;2.20;99.90;;;;;;5049230;28;20052;-68
2021/12/11 04:29:49;;;;;;;9.07;6.93;;;2.20;99.90;;;;;;5050072;28;20370;-68
2021/12/11 04:32:15;;;;;;;10.45;7.05;;;2.20;99.90;;;;;;5048980;28;20025;-68
2021/12/11 04:34:41;;;;;;;11.27;7.18;;;2.20;99.90;;;;;;5050441;28;20033;-68
2021/12/11 04:37:13;;;;;;;9.98;6.82;;;2.20;99.90;;;;;;5048549;28;20457;-68
2021/12/11 04:39:42;;;;;;;11.50;6.78;;;2.20;99.90;;;;;;5048981;28;20377;-68
2021/12/11 04:42:27;;;;;;;9.73;6.55;;;2.20;99.90;;;;;;5032651;28;20059;-68
2021/12/11 04:44:53;;;;;;;9.85;6.85;;;2.10;99.90;;;;;;5059892;28;20025;-68
2021/12/11 04:47:38;;;;;;;8.90;6.60;;;2.10;99.90;;;;;;5036812;28;20029;-68
2021/12/11 04:50:20;;;;;;;9.75;7.00;;;2.10;99.90;;;;;;5049518;28;20024;-68
2021/12/11 04:52:58;;;;;;;8.73;6.43;;;2.10;99.90;;;;;;5048653;28;20033;-68
2021/12/11 05:01:31;;;;;;;10.30;7.10;;;2.10;99.90;;;;;;5050554;28;20028;-68
2021/12/11 05:11:40;;;;;;;12.27;6.82;;;2.10;99.90;;;;;;5033703;28;20033;-68
2021/12/11 05:14:08;;;;;;;12.05;7.55;;;2.10;99.90;;;;;;5036174;28;20533;-68
2021/12/11 05:16:34;;;;;;;12.07;7.53;;;2.10;99.90;;;;;;5032329;28;20405;-70
2021/12/11 05:19:00;;;;;;;10.88;7.35;;;2.10;99.90;;;;;;5047573;28;20037;-68
2021/12/11 05:21:26;;;;;;;11.85;7.32;;;2.10;99.90;;;;;;5048571;28;20052;-68
2021/12/11 05:23:52;;;;;;;10.13;6.95;;;2.10;99.90;;;;;;5052440;28;20140;-68
2021/12/11 05:26:19;;;;;;;9.90;6.60;;;2.10;99.90;;;;;;5048736;28;20021;-68
2021/12/11 05:28:45;;;;;;;10.75;7.35;;;2.10;99.90;;;;;;5047467;28;20052;-68
2021/12/11 05:31:11;;;;;;;10.15;6.97;;;2.10;99.90;;;;;;5049133;28;20402;-68
2021/12/11 05:33:38;;;;;;;11.32;7.70;;;2.10;99.90;;;;;;5038364;28;20117;-68
2021/12/11 05:36:06;;;;;;;12.15;7.40;;;2.00;99.90;;;;;;5048292;28;20117;-68
2021/12/11 05:38:35;;;;;;;11.98;7.35;;;2.00;99.90;;;;;;5049687;28;20035;-68
2021/12/11 05:41:04;;;;;;;12.48;7.70;;;2.00;99.90;;;;;;5057177;28;20024;-68
2021/12/11 05:43:31;;;;;;;11.63;8.10;;;2.00;99.90;;;;;;5052298;28;20533;-68
2021/12/11 05:45:57;;;;;;;13.15;7.97;;;2.00;99.90;;;;;;5053056;28;20037;-68
2021/12/11 05:48:23;;;;;;;12.05;7.78;;;2.00;99.90;;;;;;5034686;28;20497;-68
2021/12/11 05:50:53;;;;;;;10.00;6.93;;;2.00;99.90;;;;;;5056336;28;20063;-68
2021/12/11 05:53:20;;;;;;;11.73;7.38;;;2.00;99.90;;;;;;5035791;28;20377;-68
2021/12/11 05:55:50;;;;;;;11.10;7.45;;;2.00;99.90;;;;;;5056512;28;20033;-68
2021/12/11 05:58:25;;;;;;;12.52;8.23;;;2.00;99.90;;;;;;5034904;28;20040;-68
2021/12/11 06:00:52;;;;;;;13.48;8.00;;;2.10;99.90;;;;;;5060679;28;20404;-68
2021/12/11 06:03:18;;;;;;;14.70;8.23;;;2.00;99.90;;;;;;5051963;28;20029;-68
2021/12/11 06:05:44;;;;;;;13.35;7.32;;;2.00;99.90;;;;;;5045529;28;20322;-68
2021/12/11 06:08:11;;;;;;;13.68;8.02;;;2.00;99.90;;;;;;5043472;28;20102;-68
2021/12/11 06:10:40;;;;;;;13.52;8.43;;;2.00;99.90;;;;;;5054839;28;20028;-68
2021/12/11 06:13:08;;;;;;;14.40;8.63;;;2.00;99.90;;;;;;5051859;28;20025;-68
2021/12/11 06:15:34;;;;;;;14.55;8.45;;;2.00;99.90;;;;;;5036915;28;20032;-68
2021/12/11 06:18:02;;;;;;;15.30;8.85;;;2.00;99.90;;;;;;5034819;28;20128;-68
2021/12/11 06:20:31;;;;;;;15.93;9.05;;;2.00;99.90;;;;;;5052238;28;20025;-68
2021/12/11 06:22:57;;;;;;;16.48;9.00;;;2.00;99.90;;;;;;5051405;28;20083;-68
2021/12/11 06:25:29;;;;;;;16.48;9.57;;;2.00;99.90;;;;;;5058783;28;20032;-68
2021/12/11 06:27:56;;;;;;;13.63;8.52;;;1.90;99.90;;;;;;5059528;28;20033;-68
2021/12/11 06:30:22;;;;;;;16.20;9.48;;;2.00;99.90;;;;;;5052373;28;20037;-68
2021/12/11 06:32:50;;;;;;;13.48;8.20;;;2.00;99.90;;;;;;5051681;28;20032;-68
2021/12/11 06:35:25;;;;;;;15.30;8.27;;;2.00;99.90;;;;;;5051268;28;20033;-66
2021/12/11 06:37:51;;;;;;;13.57;8.05;;;2.00;99.90;;;;;;5028372;28;20032;-67
2021/12/11 06:40:17;;;;;;;14.25;8.70;;;1.90;99.90;;;;;;5056605;28;20021;-66
2021/12/11 06:42:43;;;;;;;15.05;8.63;;;1.90;99.90;;;;;;5034005;28;20029;-67
2021/12/11 06:45:09;;;;;;;13.85;8.13;;;1.90;99.90;;;;;;5051814;28;20027;-68
2021/12/11 06:47:34;;;;;;;16.13;8.80;;;1.90;99.90;;;;;;5050690;28;20091;-68
2021/12/11 06:50:05;;;;;;;15.73;8.90;;;2.00;99.90;;;;;;5051386;28;20520;-68
2021/12/11 06:52:31;;;;;;;17.98;10.32;;;1.90;99.90;;;;;;5050956;28;20426;-68
2021/12/11 06:54:57;;;;;;;18.77;10.13;;;1.90;99.90;;;;;;5051331;28;20071;-69
2021/12/11 06:57:23;;;;;;;18.63;10.90;;;1.90;99.90;;;;;;5050319;28;20024;-68
2021/12/11 06:59:49;;;;;;;17.77;10.10;;;1.90;99.90;;;;;;5073089;22;20147;-92
2021/12/11 07:02:35;;;;;;;20.05;11.18;;;1.90;99.90;;;;;;5056022;28;20062;-93
2021/12/11 07:05:05;;;;;;;17.55;10.43;;;2.00;99.90;;;;;;5047592;28;20413;-92
2021/12/11 07:07:35;;;;;;;20.95;11.25;;;2.00;99.90;;;;;;5043310;28;20519;-91
2021/12/11 07:10:07;;;;;;;23.95;12.63;;;2.00;99.90;;;;;;5046235;28;20029;-92
2021/12/11 07:12:34;;;;;;;20.75;11.45;;;1.90;99.90;;;;;;5036455;28;20036;-92
2021/12/11 07:15:00;;;;;;;21.27;11.48;;;1.90;99.90;;;;;;5033203;28;20024;-91
2021/12/11 07:17:27;;;;;;;18.33;10.73;;;1.90;99.90;;;;;;5050093;28;20045;-91
2021/12/11 07:19:53;;;;;;;21.52;11.93;;;1.90;99.90;;;;;;5028837;28;20018;-92
2021/12/11 07:22:22;;;;;;;25.55;12.57;;;1.90;99.90;;;;;;5035424;28;20040;-91
2021/12/11 07:25:00;;;;;;;23.73;11.90;;;1.90;99.90;;;;;;5052897;28;20108;-91
2021/12/11 07:27:26;;;;;;;18.98;10.98;;;1.90;99.90;;;;;;5045868;28;20025;-90
2021/12/11 07:29:52;;;;;;;21.35;11.80;;;1.90;99.90;;;;;;5044723;28;20025;-91
2021/12/11 07:32:18;;;;;;;25.33;13.80;;;2.00;99.90;;;;;;5027479;28;20030;-91
2021/12/11 07:34:46;;;;;;;29.25;14.85;;;2.00;99.90;;;;;;5035842;28;20047;-90
2021/12/11 07:37:13;;;;;;;24.45;13.07;;;2.00;99.90;;;;;;5048459;28;20025;-91
2021/12/11 07:39:39;;;;;;;28.38;13.40;;;2.00;99.90;;;;;;5074516;28;20013;-90
2021/12/11 07:42:05;;;;;;;27.85;14.90;;;2.00;99.90;;;;;;5075632;28;20036;-91
2021/12/11 07:44:31;;;;;;;28.58;15.30;;;2.00;99.90;;;;;;5059995;28;20434;-90
2021/12/11 07:46:59;;;;;;;28.15;14.65;;;2.00;99.90;;;;;;5034628;28;20035;-90
2021/12/11 07:49:25;;;;;;;27.00;13.45;;;2.00;99.90;;;;;;5052284;28;20489;-90
2021/12/11 07:51:50;;;;;;;27.17;14.52;;;2.00;99.90;;;;;;5053877;28;20032;-91
2021/12/11 07:54:18;;;;;;;28.38;15.93;;;2.00;99.90;;;;;;5055680;28;20044;-90
2021/12/11 07:56:44;;;;;;;27.52;15.30;;;2.00;99.90;;;;;;5042000;28;20036;-90
2021/12/11 07:59:10;;;;;;;25.80;15.15;;;2.00;99.90;;;;;;5056636;28;20143;-91
2021/12/11 08:01:41;;;;;;;27.33;15.05;;;2.00;99.90;;;;;;5050934;28;20060;-91
2021/12/11 08:04:08;;;;;;;35.25;15.95;;;2.00;99.90;;;;;;5044379;28;20071;-90
2021/12/11 08:06:35;;;;;;;32.40;16.73;;;2.00;99.90;;;;;;5017108;28;20064;-90
2021/12/11 08:09:01;;;;;;;33.20;17.17;;;2.00;99.90;;;;;;5029318;28;20030;-90
2021/12/11 08:11:28;;;;;;;29.55;17.17;;;2.00;99.90;;;;;;5049082;28;20029;-91
2021/12/11 08:13:57;;;;;;;34.53;17.35;;;2.00;99.90;;;;;;5050911;28;20428;-90
2021/12/11 08:16:30;;;;;;;34.78;17.40;;;2.10;99.90;;;;;;5033738;28;20040;-90
2021/12/11 08:18:56;;;;;;;31.65;16.40;;;2.10;99.90;;;;;;5024889;28;20073;-90
2021/12/11 08:21:22;;;;;;;32.10;16.98;;;2.10;99.90;;;;;;5045341;28;20107;-91
2021/12/11 08:23:53;;;;;;;32.28;17.73;;;2.10;99.90;;;;;;5055732;28;20025;-90
2021/12/11 08:26:23;;;;;;;32.15;17.00;;;2.20;99.90;;;;;;5033688;28;20060;-91
2021/12/11 08:28:50;;;;;;;34.67;18.38;;;2.20;99.90;;;;;;5028582;28;20032;-90
2021/12/11 08:31:18;;;;;;;33.72;17.65;;;2.10;99.90;;;;;;5051944;28;20083;-91
2021/12/11 08:33:45;;;;;;;33.55;18.02;;;2.20;99.90;;;;;;5047823;28;20075;-92
2021/12/11 08:36:12;;;;;;;33.78;18.10;;;2.10;99.90;;;;;;5059298;28;20134;-91
2021/12/11 08:38:38;;;;;;;36.35;18.67;;;2.10;99.90;;;;;;5047956;28;20055;-90
2021/12/11 08:41:08;;;;;;;34.60;17.50;;;2.20;99.90;;;;;;5038996;28;20029;-90
2021/12/11 08:43:34;;;;;;;33.95;18.80;;;2.10;99.90;;;;;;5050968;28;20115;-91
2021/12/11 08:46:09;;;;;;;49.85;33.17;;;2.10;99.90;;;;;;5044172;28;20444;-91
2021/12/11 08:48:38;;;;;;;37.92;21.55;;;2.10;99.90;;;;;;5042891;28;20025;-91
2021/12/11 08:51:09;;;;;;;36.55;19.40;;;2.20;99.90;;;;;;5052089;28;20075;-89
2021/12/11 08:53:37;;;;;;;45.13;22.15;;;2.20;99.90;;;;;;5062705;28;20025;-91
2021/12/11 08:56:05;;;;;;;35.35;20.65;;;2.20;99.90;;;;;;5047959;28;20123;-91
2021/12/11 08:58:30;;;;;;;39.03;20.00;;;2.20;99.90;;;;;;5044168;28;20021;-90
2021/12/11 09:01:24;;;;;;;39.65;21.27;;;2.20;99.90;;;;;;5037908;28;20110;-86
2021/12/11 09:04:02;;;;;;;37.00;21.08;;;2.20;99.90;;;;;;5016738;28;20041;-90
2021/12/11 09:06:37;;;;;;;42.22;24.80;;;2.20;99.90;;;;;;5023145;28;20021;-89
2021/12/11 09:09:18;;;;;;;36.63;23.33;;;2.20;99.90;;;;;;5033670;28;20021;-89
2021/12/11 09:11:52;;;;;;;38.55;21.90;;;2.20;99.90;;;;;;5050729;28;20032;-90
2021/12/11 09:14:27;;;;;;;42.80;21.40;;;2.30;99.90;;;;;;5051356;28;20021;-90
2021/12/11 09:17:00;;;;;;;42.88;21.20;;;2.20;99.90;;;;;;5053917;28;20053;-90
2021/12/11 09:19:53;;;;;;;42.08;20.95;;;2.30;99.90;;;;;;5053560;28;20017;-89
2021/12/11 09:22:26;;;;;;;40.97;21.98;;;2.30;99.90;;;;;;5054866;28;20458;-90
2021/12/11 09:25:19;;;;;;;43.58;24.15;;;2.30;99.90;;;;;;5070456;28;20025;-89
2021/12/11 09:27:51;;;;;;;42.25;21.15;;;2.20;99.90;;;;;;5058123;28;20520;-89
2021/12/11 09:30:41;;;;;;;34.95;19.95;;;2.20;99.90;;;;;;5058358;28;20032;-90
2021/12/11 09:33:25;;;;;;;39.05;22.13;;;2.20;99.90;;;;;;5037734;28;20067;-89
2021/12/11 09:35:58;;;;;;;39.55;21.15;;;2.30;99.90;;;;;;5050588;28;20024;-89
2021/12/11 09:38:33;;;;;;;43.85;22.60;;;2.30;99.90;;;;;;5053037;28;20102;-88
2021/12/11 09:40:59;;;;;;;38.80;21.98;;;2.30;99.90;;;;;;5054089;28;20025;-89
2021/12/11 09:43:33;;;;;;;38.97;21.98;;;2.30;99.90;;;;;;5053796;28;20473;-88
2021/12/11 09:46:00;;;;;;;38.80;22.10;;;2.30;99.90;;;;;;5053782;28;20458;-89
2021/12/11 09:48:26;;;;;;;37.97;20.83;;;2.30;99.90;;;;;;5052265;28;20112;-89
2021/12/11 09:51:00;;;;;;;37.33;20.33;;;2.30;99.90;;;;;;5036845;28;20049;-89
2021/12/11 09:53:31;;;;;;;34.42;20.05;;;2.30;99.90;;;;;;5036750;28;20456;-89
2021/12/11 09:55:57;;;;;;;37.80;20.25;;;2.30;99.90;;;;;;5053606;28;20074;-89
2021/12/11 09:58:28;;;;;;;35.58;20.13;;;2.40;99.90;;;;;;5052305;28;20033;-89
2021/12/11 10:01:01;;;;;;;31.45;18.15;;;2.40;99.90;;;;;;5036750;28;20021;-89
2021/12/11 10:03:30;;;;;;;35.67;19.52;;;2.40;99.90;;;;;;5052709;28;20473;-88
2021/12/11 10:06:12;;;;;;;31.92;19.13;;;2.50;99.90;;;;;;5053422;28;20481;-90
2021/12/11 10:08:41;;;;;;;36.53;19.63;;;2.50;99.90;;;;;;5053956;28;20098;-89
2021/12/11 10:11:27;;;;;;;32.97;18.75;;;2.50;99.90;;;;;;5053133;28;20019;-88
2021/12/11 10:13:55;;;;;;;32.72;17.60;;;2.50;99.90;;;;;;5076531;28;20017;-89
2021/12/11 10:16:26;;;;;;;31.90;18.42;;;2.50;99.90;;;;;;5071997;28;20052;-88
2021/12/11 10:18:52;;;;;;;38.25;25.80;;;2.50;99.90;;;;;;5067430;28;20021;-89
2021/12/11 10:21:24;;;;;;;35.45;20.35;;;2.50;99.90;;;;;;5052852;28;20017;-90
2021/12/11 10:23:53;;;;;;;33.00;19.02;;;2.50;99.90;;;;;;5036200;28;20039;-89
2021/12/11 10:26:22;;;;;;;31.75;18.73;;;2.50;99.90;;;;;;5052047;28;20058;-89
2021/12/11 10:28:52;;;;;;;44.55;22.33;;;2.60;99.90;;;;;;5051867;28;20025;-90
2021/12/11 10:31:31;;;;;;;33.38;18.88;;;2.50;99.90;;;;;;5053577;28;20029;-90
2021/12/11 10:33:59;;;;;;;29.40;16.92;;;2.60;99.90;;;;;;5052111;28;20053;-89
2021/12/11 10:36:28;;;;;;;30.48;18.13;;;2.60;99.90;;;;;;5044019;28;20112;-89
2021/12/11 10:38:56;;;;;;;49.50;25.52;;;2.60;99.90;;;;;;5051744;28;20028;-89
2021/12/11 10:41:25;;;;;;;29.60;17.45;;;2.60;99.90;;;;;;5052662;28;20040;-89
2021/12/11 10:43:55;;;;;;;34.83;19.52;;;2.60;99.90;;;;;;5052689;28;20060;-90
2021/12/11 10:46:28;;;;;;;31.52;18.98;;;2.70;99.90;;;;;;5051951;28;20049;-89
2021/12/11 10:48:55;;;;;;;31.75;17.77;;;2.70;99.90;;;;;;5053954;28;20025;-89
2021/12/11 10:51:26;;;;;;;29.95;19.00;;;2.70;99.90;;;;;;5038137;28;20025;-91
2021/12/11 10:53:53;;;;;;;30.30;18.55;;;2.70;99.90;;;;;;5034151;28;20017;-90
2021/12/11 10:56:21;;;;;;;30.70;18.90;;;2.80;99.90;;;;;;5046349;28;20028;-89
2021/12/11 10:58:58;;;;;;;27.60;16.75;;;2.80;99.90;;;;;;5048264;28;20029;-90
2021/12/11 11:01:36;;;;;;;30.85;17.95;;;2.80;99.90;;;;;;5053526;28;20044;-91
2021/12/11 11:04:12;;;;;;;29.60;17.80;;;2.80;99.90;;;;;;5040442;28;20029;-91
2021/12/11 11:06:40;;;;;;;30.48;16.83;;;2.80;99.90;;;;;;5044253;28;20500;-90
2021/12/11 11:09:07;;;;;;;27.95;16.77;;;2.90;99.90;;;;;;5032493;28;20067;-92
2021/12/11 11:11:37;;;;;;;27.83;16.55;;;2.80;99.90;;;;;;5019316;28;20439;-91
2021/12/11 11:14:05;;;;;;;23.60;15.07;;;2.90;99.90;;;;;;5033150;28;20037;-91
2021/12/11 11:16:33;;;;;;;23.60;14.40;;;2.90;99.90;;;;;;5050078;28;20391;-90
2021/12/11 11:18:59;;;;;;;26.80;14.43;;;3.00;99.90;;;;;;5037779;28;20033;-91
2021/12/11 11:21:41;;;;;;;21.17;13.68;;;3.00;99.90;;;;;;5022418;28;20459;-93
2021/12/11 11:24:08;;;;;;;;;;;3.00;99.90;;;;;;5026600;28;20025;-91
2021/12/11 11:26:37;;;;;;;22.33;12.30;;;3.00;99.90;;;;;;5030331;28;19909;-91
2021/12/11 11:29:07;;;;;;;18.10;12.45;;;3.00;99.90;;;;;;5030321;28;20380;-92
2021/12/11 11:31:38;;;;;;;20.42;12.10;;;3.00;99.90;;;;;;5059802;28;20115;-92
2021/12/11 11:34:06;;;;;;;21.27;12.07;;;3.00;99.90;;;;;;5020803;28;20092;-91
2021/12/11 11:36:35;;;;;;;21.63;12.27;;;3.10;99.90;;;;;;5045572;28;20041;-91
2021/12/11 11:39:07;;;;;;;21.35;12.98;;;3.10;99.90;;;;;;5032972;28;20024;-91
2021/12/11 11:41:39;;;;;;;20.48;12.30;;;3.10;99.90;;;;;;5022035;28;20017;-92
2021/12/11 11:44:05;;;;;;;;;;;3.10;99.90;;;;;;5042408;28;20052;-92
2021/12/11 11:46:36;;;;;;;17.15;12.20;;;3.10;99.90;;;;;;5034775;28;19909;-92
2021/12/11 11:49:20;;;;;;;16.40;10.85;;;3.10;99.90;;;;;;5040066;28;20245;-93
2021/12/11 11:52:07;;;;;;;18.48;12.68;;;3.10;99.90;;;;;;5067538;28;20090;-93
2021/12/11 11:54:34;;;;;;;21.00;12.38;;;3.10;99.90;;;;;;5059907;28;20542;-89
2021/12/11 11:57:11;;;;;;;93.53;48.83;;;3.10;99.90;;;;;;5032741;28;20113;-88
2021/12/11 11:59:39;;;;;;;17.50;11.75;;;3.20;99.90;;;;;;5036148;28;20021;-92
2021/12/11 12:02:18;;;;;;;23.05;12.68;;;3.20;99.90;;;;;;5049056;28;20086;-93
2021/12/11 12:04:46;;;;;;;22.20;12.43;;;3.20;99.90;;;;;;5038459;28;20024;-91
2021/12/11 12:07:13;;;;;;;15.77;10.52;;;3.30;99.90;;;;;;5031074;28;20024;-93
2021/12/11 12:09:46;;;;;;;18.50;10.70;;;3.30;99.90;;;;;;5037673;28;20029;-95
2021/12/11 12:12:15;;;;;;;16.40;10.30;;;3.30;99.90;;;;;;5043459;28;20036;-92
2021/12/11 12:14:43;;;;;;;20.25;11.45;;;3.30;99.90;;;;;;5032022;28;20044;-91
2021/12/11 12:17:14;;;;;;;20.67;12.48;;;3.20;99.90;;;;;;5034536;28;20088;-92
2021/12/11 12:19:41;;;;;;;19.23;11.33;;;3.20;99.90;;;;;;5028914;28;20021;-90
2021/12/11 12:22:09;;;;;;;20.17;12.25;;;3.30;99.90;;;;;;5027601;28;20067;-92
2021/12/11 12:24:37;;;;;;;18.77;11.77;;;3.30;99.90;;;;;;5025852;28;20060;-93
2021/12/11 12:27:08;;;;;;;24.35;13.57;;;3.30;99.90;;;;;;5032336;28;20394;-93
2021/12/11 12:29:36;;;;;;;24.63;14.07;;;3.30;99.90;;;;;;5042558;28;20033;-93
2021/12/11 12:32:21;;;;;;;;;;;;;;;;;;;;;
2021/12/11 12:34:52;;;;;;;21.70;12.75;;;3.30;99.90;;;;;;5050155;28;20037;-92
2021/12/11 12:37:17;;;;;;;17.92;12.45;;;3.30;99.90;;;;;;5058199;28;20032;-92
2021/12/11 12:39:49;;;;;;;21.23;12.73;;;3.30;99.90;;;;;;5026056;28;20032;-93
2021/12/11 12:42:27;;;;;;;20.45;12.05;;;3.30;99.90;;;;;;5052341;28;20025;-91
2021/12/11 12:45:22;;;;;;;28.83;16.50;;;3.30;99.90;;;;;;5046365;28;20047;-93
2021/12/11 12:47:55;;;;;;;23.75;13.48;;;3.30;99.90;;;;;;5030477;28;20032;-93
2021/12/11 12:50:44;;;;;;;21.80;12.73;;;3.30;99.90;;;;;;5049169;28;20028;-91
2021/12/11 12:53:11;;;;;;;18.75;11.50;;;3.30;99.90;;;;;;5069709;28;20025;-92
2021/12/11 12:55:45;;;;;;;17.25;12.05;;;3.30;99.90;;;;;;5036776;28;20120;-93
2021/12/11 12:58:28;;;;;;;18.58;13.48;;;3.40;99.90;;;;;;5021252;28;20041;-93
2021/12/11 13:00:59;;;;;;;16.75;11.27;;;3.40;99.90;;;;;;5049536;28;20552;-92
2021/12/11 13:03:28;;;;;;;14.45;9.65;;;3.40;99.90;;;;;;5046511;28;20071;-92
2021/12/11 13:06:09;;;;;;;18.20;10.30;;;3.40;99.90;;;;;;5047259;28;20025;-93
2021/12/11 13:08:48;;;;;;;19.02;11.90;;;3.40;99.90;;;;;;5048633;28;20037;-94
2021/12/11 13:11:41;;;;;;;29.05;17.15;;;3.40;99.90;;;;;;5014431;28;20529;-92
2021/12/11 13:14:07;;;;;;;14.00;9.65;;;3.40;99.90;;;;;;5018372;28;20041;-92
2021/12/11 13:16:38;;;;;;;19.77;10.98;;;3.40;99.90;;;;;;5031806;28;20044;-92
2021/12/11 13:19:06;;;;;;;15.15;10.52;;;3.40;99.90;;;;;;5022226;28;20044;-93
2021/12/11 13:21:46;;;;;;;16.77;10.75;;;3.40;99.90;;;;;;5053025;28;20049;-93